KINT/INT METAR and TAF weather

Enter ICAO airport designator
Station Type Date Time Source
KINT METAR 2022/09/26 08:54 UTC NOAA

KINT 260854Z AUTO 00000KT 10SM CLR 14/13 A2988 RMK AO2 SLP109 T01390133 55000


Station Type Date Time Source
KINT Decoded METAR 2022/09/26 08:54 UTC NOAA

WINSTON SALEM SMITH REYNOLDS, NC, United States (KINT) 36-08N 80-14W 291M
Sep 26, 2022 - 04:54 AM EDT / 2022.09.26 0854 UTC
Wind: Calm:0
Visibility: 10 mile(s):0
Sky conditions: clear
Temperature: 57.0 F (13.9 C)
Dew Point: 55.9 F (13.3 C)
Relative Humidity: 96%
Pressure (altimeter): 29.88 in. Hg (1011 hPa)
Pressure tendency: 0.00 inches (0.0 hPa) lower than three hours ago
ob: KINT 260854Z AUTO 00000KT 10SM CLR 14/13 A2988 RMK AO2 SLP109 T01390133 55000
cycle: 9

Station Type Date Time Source
KINT TAF 2022/09/26 06:22 UTC NOAA

TAF KINT 260520Z 2606/2706 24005KT P6SM SCT070 BKN250
FM261500 28010G17KT P6SM FEW070 SCT250
FM262300 31005KT P6SM SKC

Example: see airport list